Time;durP1;ratioP1;P1;durP2;ratioP2;P2;SDS_P1;SDS_P2;PMS_P1;PMS_P2;Temp;Humidity;BMP_temperature;BMP_pressure;BME280_temperature;BME280_humidity;BME280_pressure;Samples;Min_cycle;Max_cycle;Signal;HPM_P1;HPM_P2
2022/09/12 00:03:35;;;;;;;6.93;4.13;;;;;;;;;;5111336;27;20404;-78
2022/09/12 00:06:06;;;;;;;6.32;4.43;;;;;;;;;;5111419;28;20024;-79
2022/09/12 00:13:21;;;;;;;8.45;5.32;;;;;;;;;;5071008;28;20123;-78
2022/09/12 00:18:46;;;;;;;11.13;4.07;;;;;;;;;;5111738;27;20396;-76
2022/09/12 00:22:14;;;;;;;6.30;4.18;;;;;;;;;;5111553;27;21101;-76
2022/09/12 00:25:04;;;;;;;9.25;4.00;;;;;;;;;;5111200;27;20566;-77
2022/09/12 00:32:23;;;;;;;5.95;3.70;;;;;;;;;;5111035;27;20839;-76
2022/09/12 00:34:49;;;;;;;7.47;4.13;;;;;;;;;;5111363;28;20044;-78
2022/09/12 00:38:12;;;;;;;6.47;4.00;;;;;;;;;;5111475;27;20624;-77
2022/09/12 00:40:38;;;;;;;6.03;4.18;;;;;;;;;;5111417;28;20044;-78
2022/09/12 00:46:50;;;;;;;7.53;4.10;;;;;;;;;;5111298;27;20714;-76
2022/09/12 00:49:19;;;;;;;6.78;4.38;;;;;;;;;;5111390;28;20050;-77
2022/09/12 00:51:51;;;;;;;8.07;3.70;;;;;;;;;;5110883;28;20424;-77
2022/09/12 00:55:31;;;;;;;11.40;4.53;;;;;;;;;;5111484;27;20388;-76
2022/09/12 00:58:18;;;;;;;5.72;3.53;;;;;;;;;;5111347;28;20052;-77
2022/09/12 01:00:44;;;;;;;8.95;4.57;;;;;;;;;;5110916;28;20468;-77
2022/09/12 01:03:15;;;;;;;6.20;3.78;;;;;;;;;;5110038;28;20110;-77
2022/09/12 01:06:44;;;;;;;11.60;3.90;;;;;;;;;;5111570;27;20385;-76
2022/09/12 01:09:13;;;;;;;6.53;3.60;;;;;;;;;;5111348;28;20445;-76
2022/09/12 01:12:40;;;;;;;6.18;4.15;;;;;;;;;;5111337;27;20573;-76
2022/09/12 01:15:07;;;;;;;7.53;4.65;;;;;;;;;;5111394;28;20024;-76
2022/09/12 01:18:49;;;;;;;5.07;3.67;;;;;;;;;;5070801;28;20383;-78
2022/09/12 01:23:30;;;;;;;5.47;3.60;;;;;;;;;;5112158;27;20592;-76
2022/09/12 01:26:23;;;;;;;5.07;3.22;;;;;;;;;;5112217;27;20392;-76
2022/09/12 01:29:57;;;;;;;6.20;3.92;;;;;;;;;;5112062;27;20404;-77
2022/09/12 01:33:51;;;;;;;4.72;3.28;;;;;;;;;;5111105;27;20623;-78
2022/09/12 01:37:44;;;;;;;5.72;3.40;;;;;;;;;;5111429;27;20769;-77
2022/09/12 01:40:14;;;;;;;8.70;3.60;;;;;;;;;;5111528;28;20065;-77
2022/09/12 01:45:15;;;;;;;6.85;3.80;;;;;;;;;;5112067;27;20393;-78
2022/09/12 01:47:50;;;;;;;5.78;3.55;;;;;;;;;;5111203;28;20023;-77
2022/09/12 01:52:26;;;;;;;5.15;3.35;;;;;;;;;;5111569;27;20832;-76
2022/09/12 01:55:15;;;;;;;5.60;3.45;;;;;;;;;;5111001;28;20065;-77
2022/09/12 01:59:55;;;;;;;6.90;3.33;;;;;;;;;;5071267;28;20387;-76
2022/09/12 02:06:16;;;;;;;5.30;3.30;;;;;;;;;;5111677;27;21048;-77
2022/09/12 02:08:46;;;;;;;6.10;3.65;;;;;;;;;;5110944;28;20034;-76
2022/09/12 02:12:31;;;;;;;6.40;3.80;;;;;;;;;;5111958;27;20388;-76
2022/09/12 02:15:01;;;;;;;6.50;3.53;;;;;;;;;;5111356;28;20028;-76
2022/09/12 02:18:29;;;;;;;5.38;3.40;;;;;;;;;;5111932;27;20569;-76
2022/09/12 02:20:55;;;;;;;5.05;3.53;;;;;;;;;;5111315;28;20028;-77
2022/09/12 02:24:52;;;;;;;6.28;3.55;;;;;;;;;;5111091;27;20831;-76
2022/09/12 02:27:24;;;;;;;5.60;3.25;;;;;;;;;;5111561;28;20028;-76
2022/09/12 02:31:53;;;;;;;6.88;3.83;;;;;;;;;;5110982;27;20389;-76
2022/09/12 02:34:20;;;;;;;6.93;3.65;;;;;;;;;;5111432;28;20031;-77
2022/09/12 02:36:49;;;;;;;6.03;3.50;;;;;;;;;;5111349;28;20028;-76
2022/09/12 02:40:45;;;;;;;6.70;3.72;;;;;;;;;;5111562;27;20554;-76
2022/09/12 02:43:11;;;;;;;7.32;3.97;;;;;;;;;;5111463;28;20073;-76
2022/09/12 02:45:37;;;;;;;7.32;4.38;;;;;;;;;;5110887;28;20548;-76
2022/09/12 02:48:58;;;;;;;6.05;3.45;;;;;;;;;;5111747;27;20400;-77
2022/09/12 02:51:25;;;;;;;7.57;3.65;;;;;;;;;;5111180;28;20024;-77
2022/09/12 02:53:51;;;;;;;5.18;3.42;;;;;;;;;;5111383;28;20077;-77
2022/09/12 02:57:33;;;;;;;7.03;3.88;;;;;;;;;;5111942;27;20834;-76
2022/09/12 03:00:01;;;;;;;5.00;3.65;;;;;;;;;;5110926;28;20023;-77
2022/09/12 03:02:51;;;;;;;5.78;3.53;;;;;;;;;;5111361;28;20020;-76
2022/09/12 03:08:15;;;;;;;5.90;3.38;;;;;;;;;;5111361;27;20868;-77
2022/09/12 03:11:54;;;;;;;5.78;3.58;;;;;;;;;;5111485;27;20396;-76
2022/09/12 03:14:39;;;;;;;5.82;3.90;;;;;;;;;;5110909;28;20016;-77
2022/09/12 03:17:09;;;;;;;5.53;3.38;;;;;;;;;;5111262;28;20030;-77
2022/09/12 03:20:34;;;;;;;8.70;4.00;;;;;;;;;;5111201;27;20540;-76
2022/09/12 03:25:23;;;;;;;5.05;3.15;;;;;;;;;;5111711;27;20569;-77
2022/09/12 03:27:56;;;;;;;5.78;3.80;;;;;;;;;;5110924;28;20479;-77
2022/09/12 03:30:22;;;;;;;4.88;3.42;;;;;;;;;;5111555;28;20028;-77
2022/09/12 03:34:52;;;;;;;7.05;3.97;;;;;;;;;;5111139;27;20993;-76
2022/09/12 03:37:39;;;;;;;6.22;4.25;;;;;;;;;;5111659;27;20393;-76
2022/09/12 03:41:03;;;;;;;5.38;3.65;;;;;;;;;;5111112;27;20396;-76
2022/09/12 03:43:29;;;;;;;5.88;3.40;;;;;;;;;;5111561;28;20020;-77
2022/09/12 03:53:54;;;;;;;5.10;3.50;;;;;;;;;;5111486;27;20560;-76
2022/09/12 03:57:21;;;;;;;4.85;3.53;;;;;;;;;;5111516;27;20392;-76
2022/09/12 03:59:49;;;;;;;5.85;3.47;;;;;;;;;;5111618;28;20023;-77
2022/09/12 04:02:15;;;;;;;6.43;4.10;;;;;;;;;;5110816;28;20026;-78
2022/09/12 04:04:42;;;;;;;5.47;3.80;;;;;;;;;;5111233;28;20020;-77
2022/09/12 04:07:09;;;;;;;6.50;3.95;;;;;;;;;;5111169;28;20468;-78
2022/09/12 04:09:35;;;;;;;8.60;4.50;;;;;;;;;;5110727;28;20024;-77
2022/09/12 04:12:02;;;;;;;7.28;3.80;;;;;;;;;;5111099;28;20133;-78
2022/09/12 04:14:28;;;;;;;5.68;3.70;;;;;;;;;;5111027;28;20418;-78
2022/09/12 04:16:54;;;;;;;7.68;3.67;;;;;;;;;;5110645;28;20032;-78
2022/09/12 04:20:55;;;;;;;6.05;3.83;;;;;;;;;;5091838;27;20612;-77
2022/09/12 04:23:21;;;;;;;9.10;4.05;;;;;;;;;;5090647;28;20028;-77
2022/09/12 04:28:42;;;;;;;6.22;4.10;;;;;;;;;;5111623;27;20453;-77
2022/09/12 04:31:11;;;;;;;7.20;4.32;;;;;;;;;;5110903;28;20385;-76
2022/09/12 04:33:37;;;;;;;6.40;4.05;;;;;;;;;;5111516;28;20495;-77
2022/09/12 04:44:14;;;;;;;6.20;4.15;;;;;;;;;;5111032;27;20613;-77
2022/09/12 04:46:45;;;;;;;7.18;4.35;;;;;;;;;;5127155;28;20024;-77
2022/09/12 04:49:12;;;;;;;5.95;4.00;;;;;;;;;;5111308;28;20012;-77
2022/09/12 04:52:51;;;;;;;8.25;3.97;;;;;;;;;;5111185;27;20569;-77
2022/09/12 04:55:17;;;;;;;6.70;4.15;;;;;;;;;;5111592;28;20023;-77
2022/09/12 04:59:50;;;;;;;7.03;4.22;;;;;;;;;;5108983;27;20438;-74
2022/09/12 05:02:16;;;;;;;8.20;4.40;;;;;;;;;;5112995;28;20031;-81
2022/09/12 05:04:42;;;;;;;7.40;4.45;;;;;;;;;;5112425;28;20115;-80
2022/09/12 05:07:09;;;;;;;10.88;6.32;;;;;;;;;;5110587;28;20023;-77
2022/09/12 05:10:44;;;;;;;7.35;4.40;;;;;;;;;;5110939;27;20814;-74
2022/09/12 05:13:11;;;;;;;5.70;4.05;;;;;;;;;;5110710;28;20024;-77
2022/09/12 05:15:37;;;;;;;8.20;4.10;;;;;;;;;;5110847;28;20076;-76
2022/09/12 05:18:03;;;;;;;6.13;4.07;;;;;;;;;;5110712;28;20032;-77
2022/09/12 05:20:29;;;;;;;7.70;4.18;;;;;;;;;;5125980;28;20031;-81
2022/09/12 05:22:55;;;;;;;6.40;3.83;;;;;;;;;;5126497;28;20074;-78
2022/09/12 05:25:21;;;;;;;5.35;3.65;;;;;;;;;;5110608;28;20028;-81
2022/09/12 05:29:24;;;;;;;5.60;3.70;;;;;;;;;;5109962;27;20461;-78
2022/09/12 05:31:50;;;;;;;7.38;4.57;;;;;;;;;;5108771;28;20031;-77
2022/09/12 05:36:30;;;;;;;7.60;4.45;;;;;;;;;;5068908;28;20387;-75
2022/09/12 05:38:56;;;;;;;5.65;3.92;;;;;;;;;;5066553;28;20139;-73
2022/09/12 05:45:31;;;;;;;8.55;4.70;;;;;;;;;;5142815;27;20424;-73
2022/09/12 05:49:46;;;;;;;6.55;4.13;;;;;;;;;;5110181;27;20416;-73
2022/09/12 05:52:12;;;;;;;6.72;4.03;;;;;;;;;;5109136;28;20031;-74
2022/09/12 05:56:47;;;;;;;7.72;4.50;;;;;;;;;;5069834;28;21008;-76
2022/09/12 05:59:15;;;;;;;6.43;4.05;;;;;;;;;;5050314;28;20112;-72
2022/09/12 06:01:42;;;;;;;8.05;3.97;;;;;;;;;;5046561;28;20032;-74
2022/09/12 06:04:08;;;;;;;6.70;3.67;;;;;;;;;;5056020;28;20058;-75
2022/09/12 06:06:44;;;;;;;6.07;3.85;;;;;;;;;;5067959;28;20045;-73
2022/09/12 06:09:11;;;;;;;5.50;3.20;;;;;;;;;;5068276;28;20028;-73
2022/09/12 06:12:32;;;;;;;6.95;4.18;;;;;;;;;;5109435;27;20457;-72
2022/09/12 06:14:58;;;;;;;5.65;3.90;;;;;;;;;;5108982;28;20020;-71
2022/09/12 06:17:24;;;;;;;5.45;3.17;;;;;;;;;;5106293;28;20019;-72
2022/09/12 06:20:46;;;;;;;6.18;3.60;;;;;;;;;;5109967;27;20470;-73
2022/09/12 06:23:12;;;;;;;4.60;2.97;;;;;;;;;;5109809;28;20081;-72
2022/09/12 06:25:45;;;;;;;5.55;3.60;;;;;;;;;;5110240;28;20023;-72
2022/09/12 06:28:54;;;;;;;5.38;3.10;;;;;;;;;;5110018;27;20472;-74
2022/09/12 06:32:11;;;;;;;4.28;3.00;;;;;;;;;;5110866;27;20920;-77
2022/09/12 06:34:37;;;;;;;4.32;3.17;;;;;;;;;;5111084;28;20388;-72
2022/09/12 06:37:03;;;;;;;9.32;2.88;;;;;;;;;;5109292;28;20031;-72
2022/09/12 06:39:30;;;;;;;6.63;3.33;;;;;;;;;;5110971;28;20502;-73
2022/09/12 06:41:56;;;;;;;3.70;2.80;;;;;;;;;;5110736;28;20051;-73
2022/09/12 06:46:11;;;;;;;5.95;3.30;;;;;;;;;;5110755;27;20396;-69
2022/09/12 06:48:38;;;;;;;8.90;2.60;;;;;;;;;;5100093;28;20038;-70
2022/09/12 06:52:40;;;;;;;3.03;2.20;;;;;;;;;;5102713;27;20458;-70
2022/09/12 06:58:10;;;;;;;4.10;2.80;;;;;;;;;;5108430;27;20388;-72
2022/09/12 07:00:37;;;;;;;4.55;2.38;;;;;;;;;;5109411;28;20132;-71
2022/09/12 07:03:03;;;;;;;4.28;2.30;;;;;;;;;;5109758;28;20019;-73
2022/09/12 07:05:29;;;;;;;7.20;3.92;;;;;;;;;;5110013;28;20028;-73
2022/09/12 07:07:56;;;;;;;5.07;2.42;;;;;;;;;;5108941;28;20034;-72
2022/09/12 07:10:22;;;;;;;4.47;2.20;;;;;;;;;;5109876;28;20417;-71
2022/09/12 07:14:57;;;;;;;8.35;2.72;;;;;;;;;;5110420;27;20835;-71
2022/09/12 07:17:23;;;;;;;6.38;2.75;;;;;;;;;;5110566;28;20030;-72
2022/09/12 07:19:49;;;;;;;3.53;2.25;;;;;;;;;;5109888;28;20051;-76
2022/09/12 07:22:15;;;;;;;4.78;2.60;;;;;;;;;;5109755;28;20506;-74
2022/09/12 07:24:41;;;;;;;6.10;2.90;;;;;;;;;;5109064;28;20047;-74
2022/09/12 07:27:08;;;;;;;7.15;2.75;;;;;;;;;;5110022;28;20028;-74
2022/09/12 07:30:22;;;;;;;3.72;2.35;;;;;;;;;;5110871;27;20393;-71
2022/09/12 07:36:02;;;;;;;4.35;2.15;;;;;;;;;;5111017;27;20405;-73
2022/09/12 07:38:28;;;;;;;6.13;2.55;;;;;;;;;;5111014;28;20085;-77
2022/09/12 07:41:18;;;;;;;6.40;2.60;;;;;;;;;;5110630;27;20392;-73
2022/09/12 07:45:29;;;;;;;3.67;2.22;;;;;;;;;;5069977;28;20461;-74
2022/09/12 07:47:56;;;;;;;8.35;2.38;;;;;;;;;;5067927;28;20025;-70
2022/09/12 07:50:22;;;;;;;6.40;2.85;;;;;;;;;;5068713;28;20025;-77
2022/09/12 07:52:49;;;;;;;5.18;3.17;;;;;;;;;;5069451;28;20023;-73
2022/09/12 07:55:15;;;;;;;6.50;3.00;;;;;;;;;;5069250;28;20027;-75
2022/09/12 07:58:15;;;;;;;5.10;2.65;;;;;;;;;;5068017;28;20395;-72
2022/09/12 08:01:14;;;;;;;5.43;3.03;;;;;;;;;;5109018;27;20627;-74
2022/09/12 08:03:56;;;;;;;6.30;2.67;;;;;;;;;;5068367;28;20399;-75
2022/09/12 08:06:46;;;;;;;9.18;3.40;;;;;;;;;;5107616;27;20393;-73
2022/09/12 08:09:14;;;;;;;8.27;3.17;;;;;;;;;;5108707;28;20023;-69
2022/09/12 08:11:40;;;;;;;48.85;8.90;;;;;;;;;;5107143;28;20019;-74
2022/09/12 08:15:15;;;;;;;197.48;21.27;;;;;;;;;;5068372;28;20453;-75
2022/09/12 08:17:42;;;;;;;8.50;3.97;;;;;;;;;;5070238;28;20066;-75
2022/09/12 08:20:08;;;;;;;68.05;10.07;;;;;;;;;;5068792;28;20037;-75
2022/09/12 08:25:11;;;;;;;8.60;3.00;;;;;;;;;;5110028;27;20442;-74
2022/09/12 08:27:38;;;;;;;6.63;3.10;;;;;;;;;;5108871;28;20032;-77
2022/09/12 08:30:24;;;;;;;5.85;3.63;;;;;;;;;;5108572;27;20396;-75
2022/09/12 08:32:50;;;;;;;5.57;3.47;;;;;;;;;;5099934;28;20132;-75
2022/09/12 08:35:16;;;;;;;4.38;3.00;;;;;;;;;;5088574;28;20012;-73
2022/09/12 08:43:10;;;;;;;8.85;3.88;;;;;;;;;;5109043;27;21132;-77
2022/09/12 08:45:45;;;;;;;4.88;3.47;;;;;;;;;;5108495;28;20024;-74
2022/09/12 08:48:12;;;;;;;10.70;4.18;;;;;;;;;;5099156;28;20027;-74
2022/09/12 08:52:34;;;;;;;5.72;3.60;;;;;;;;;;5145758;27;20338;-71
2022/09/12 08:55:00;;;;;;;6.45;3.95;;;;;;;;;;5130707;27;20470;-73
2022/09/12 08:58:21;;;;;;;5.20;3.38;;;;;;;;;;5106931;27;20381;-77
2022/09/12 09:01:09;;;;;;;5.32;3.28;;;;;;;;;;5107947;28;20032;-72
2022/09/12 09:03:51;;;;;;;5.38;3.13;;;;;;;;;;5109450;28;20425;-70
2022/09/12 09:06:32;;;;;;;4.88;3.10;;;;;;;;;;5109440;28;20098;-70
2022/09/12 09:09:16;;;;;;;4.55;2.90;;;;;;;;;;5105441;28;20020;-71
2022/09/12 09:12:31;;;;;;;4.10;2.70;;;;;;;;;;5107277;27;20388;-70
2022/09/12 09:15:55;;;;;;;4.78;2.63;;;;;;;;;;5106071;27;20808;-73
2022/09/12 09:18:23;;;;;;;4.72;2.40;;;;;;;;;;5108253;28;20054;-74
2022/09/12 09:20:52;;;;;;;3.33;2.78;;;;;;;;;;5109408;28;20078;-74
2022/09/12 09:26:44;;;;;;;4.32;2.75;;;;;;;;;;5048484;27;20389;-72
2022/09/12 09:29:16;;;;;;;6.18;2.95;;;;;;;;;;5041091;28;20065;-73
2022/09/12 09:31:44;;;;;;;3.20;2.30;;;;;;;;;;5049445;28;20110;-81
2022/09/12 09:34:55;;;;;;;4.32;2.90;;;;;;;;;;5108336;27;20322;-76
2022/09/12 09:38:21;;;;;;;4.53;2.70;;;;;;;;;;5106491;27;21028;-76
2022/09/12 09:41:00;;;;;;;4.10;2.50;;;;;;;;;;5105572;28;20119;-75
2022/09/12 09:43:27;;;;;;;4.30;2.13;;;;;;;;;;5105832;28;20441;-74
2022/09/12 09:45:54;;;;;;;5.78;2.63;;;;;;;;;;5106579;28;20027;-76
2022/09/12 09:48:23;;;;;;;3.78;2.40;;;;;;;;;;5107308;28;20027;-74
2022/09/12 09:50:49;;;;;;;5.63;3.95;;;;;;;;;;5107565;28;20028;-73
2022/09/12 09:53:36;;;;;;;5.88;2.50;;;;;;;;;;5106859;28;20044;-76
2022/09/12 09:56:05;;;;;;;2.83;2.15;;;;;;;;;;5108008;28;20361;-79
2022/09/12 09:58:35;;;;;;;3.80;2.83;;;;;;;;;;5108399;28;20115;-81
2022/09/12 10:01:03;;;;;;;31.95;4.18;;;;;;;;;;5104785;28;20024;-78
2022/09/12 10:03:33;;;;;;;8.27;3.72;;;;;;;;;;5108815;28;20035;-79
2022/09/12 10:07:30;;;;;;;10.75;2.92;;;;;;;;;;5109729;27;20416;-78
2022/09/12 10:10:14;;;;;;;4.35;2.58;;;;;;;;;;5111690;28;20024;-80
2022/09/12 10:13:53;;;;;;;4.65;2.42;;;;;;;;;;5110128;27;20384;-73
2022/09/12 10:16:24;;;;;;;3.90;2.30;;;;;;;;;;5109327;28;20111;-77
2022/09/12 10:18:51;;;;;;;3.65;2.60;;;;;;;;;;5109631;28;20497;-79
2022/09/12 10:21:26;;;;;;;4.70;2.30;;;;;;;;;;5110224;28;20028;-80
2022/09/12 10:23:59;;;;;;;8.93;3.00;;;;;;;;;;5109041;28;20434;-80
2022/09/12 10:27:59;;;;;;;4.47;2.55;;;;;;;;;;5110345;27;20462;-81
2022/09/12 10:30:27;;;;;;;5.03;2.80;;;;;;;;;;5109501;28;20024;-77
2022/09/12 10:32:54;;;;;;;5.00;2.63;;;;;;;;;;5109278;28;20031;-76
2022/09/12 10:35:21;;;;;;;7.60;5.50;;;;;;;;;;5109431;28;20109;-80
2022/09/12 10:37:58;;;;;;;5.18;2.85;;;;;;;;;;5109614;28;20020;-76
2022/09/12 10:40:26;;;;;;;4.95;3.58;;;;;;;;;;5108549;28;20437;-83
2022/09/12 10:42:53;;;;;;;3.70;2.60;;;;;;;;;;5108864;28;20016;-75
2022/09/12 10:45:20;;;;;;;7.43;2.75;;;;;;;;;;5110137;28;20024;-83
2022/09/12 10:47:47;;;;;;;3.55;2.63;;;;;;;;;;5109124;28;20063;-77
2022/09/12 10:50:21;;;;;;;4.75;2.83;;;;;;;;;;5106236;28;20028;-75
2022/09/12 10:52:47;;;;;;;5.93;2.80;;;;;;;;;;5105167;28;20088;-75
2022/09/12 10:55:14;;;;;;;6.57;2.50;;;;;;;;;;5105461;28;20096;-78
2022/09/12 10:57:53;;;;;;;5.00;2.95;;;;;;;;;;5105711;28;20051;-82
2022/09/12 11:00:26;;;;;;;4.38;2.65;;;;;;;;;;5106559;28;20024;-80
2022/09/12 11:03:05;;;;;;;10.43;2.90;;;;;;;;;;5106570;28;20012;-75
2022/09/12 11:05:49;;;;;;;4.03;2.75;;;;;;;;;;5108201;28;20019;-77
2022/09/12 11:08:37;;;;;;;14.68;4.13;;;;;;;;;;5107633;28;20426;-72
2022/09/12 11:11:06;;;;;;;12.52;3.83;;;;;;;;;;5108693;28;20085;-74
2022/09/12 11:13:45;;;;;;;12.70;4.93;;;;;;;;;;5108446;28;20042;-79
2022/09/12 11:16:21;;;;;;;14.32;4.30;;;;;;;;;;5109087;28;20056;-77
2022/09/12 11:18:47;;;;;;;5.35;2.72;;;;;;;;;;5109364;28;20024;-78
2022/09/12 11:21:14;;;;;;;3.60;2.30;;;;;;;;;;5108080;28;20023;-78
2022/09/12 11:23:50;;;;;;;3.83;2.45;;;;;;;;;;5109263;28;20407;-78
2022/09/12 11:26:35;;;;;;;3.50;2.50;;;;;;;;;;5108763;28;20097;-81
2022/09/12 11:29:15;;;;;;;5.57;2.17;;;;;;;;;;5109561;28;20051;-78
2022/09/12 11:31:41;;;;;;;4.35;2.42;;;;;;;;;;5109270;28;20495;-80
2022/09/12 11:34:08;;;;;;;4.93;2.90;;;;;;;;;;5106239;28;20068;-85
2022/09/12 11:36:53;;;;;;;4.55;2.85;;;;;;;;;;5109755;28;20380;-79
2022/09/12 11:41:18;;;;;;;4.68;2.70;;;;;;;;;;5110815;27;20397;-76
2022/09/12 11:44:48;;;;;;;4.60;2.80;;;;;;;;;;5111016;27;20416;-78
2022/09/12 11:47:14;;;;;;;4.90;2.95;;;;;;;;;;5126406;28;20038;-77
2022/09/12 11:49:47;;;;;;;5.25;3.55;;;;;;;;;;5111037;28;20387;-78
2022/09/12 11:54:46;;;;;;;7.22;3.05;;;;;;;;;;5110234;27;20389;-76
2022/09/12 11:57:21;;;;;;;4.93;2.88;;;;;;;;;;5110535;28;20027;-79
2022/09/12 11:59:52;;;;;;;4.07;2.80;;;;;;;;;;5110719;28;20031;-75
2022/09/12 12:02:27;;;;;;;5.60;2.97;;;;;;;;;;5110739;28;20099;-80
2022/09/12 12:05:16;;;;;;;5.07;3.03;;;;;;;;;;5110706;28;20432;-79
2022/09/12 12:07:47;;;;;;;3.58;2.35;;;;;;;;;;5110267;28;20380;-76
2022/09/12 12:10:31;;;;;;;3.78;2.45;;;;;;;;;;5109962;28;20023;-77
2022/09/12 12:12:57;;;;;;;5.20;2.95;;;;;;;;;;5110019;28;20389;-79
2022/09/12 12:16:47;;;;;;;4.05;2.60;;;;;;;;;;5110911;27;20392;-76
2022/09/12 12:19:13;;;;;;;3.15;2.40;;;;;;;;;;5109341;28;20031;-79
2022/09/12 12:21:41;;;;;;;3.88;2.25;;;;;;;;;;5109046;28;20421;-78
2022/09/12 12:24:07;;;;;;;3.03;2.08;;;;;;;;;;5110697;28;20035;-79
2022/09/12 12:29:38;;;;;;;7.18;2.90;;;;;;;;;;5110807;27;20450;-79
2022/09/12 12:32:04;;;;;;;2.78;1.50;;;;;;;;;;5110804;28;20031;-77
2022/09/12 12:34:38;;;;;;;2.20;1.48;;;;;;;;;;5126598;28;20030;-76
2022/09/12 12:37:20;;;;;;;3.63;1.65;;;;;;;;;;5126814;28;20422;-76
2022/09/12 12:41:28;;;;;;;3.97;1.60;;;;;;;;;;5111039;27;20912;-76
2022/09/12 12:43:56;;;;;;;6.05;1.70;;;;;;;;;;5110387;28;20069;-73
2022/09/12 12:46:26;;;;;;;2.88;1.65;;;;;;;;;;5111062;28;20090;-83
2022/09/12 12:48:54;;;;;;;3.65;1.40;;;;;;;;;;5110981;28;20039;-80
2022/09/12 12:51:23;;;;;;;3.35;1.20;;;;;;;;;;5109656;28;20098;-78
2022/09/12 12:53:50;;;;;;;1.60;1.08;;;;;;;;;;5108174;28;20024;-81
2022/09/12 12:56:29;;;;;;;1.70;1.30;;;;;;;;;;5108203;28;20591;-82
2022/09/12 12:58:59;;;;;;;3.50;2.10;;;;;;;;;;5107474;28;20551;-80
2022/09/12 13:02:22;;;;;;;3.08;1.60;;;;;;;;;;5110093;27;20474;-80
2022/09/12 13:04:49;;;;;;;2.15;1.20;;;;;;;;;;5108750;28;20024;-78
2022/09/12 13:07:24;;;;;;;4.95;1.55;;;;;;;;;;5110803;28;20099;-79
2022/09/12 13:09:54;;;;;;;5.28;2.33;;;;;;;;;;5110670;28;20027;-79
2022/09/12 13:12:29;;;;;;;30.48;14.07;;;;;;;;;;5110839;28;20457;-79
2022/09/12 13:14:59;;;;;;;64.57;34.63;;;;;;;;;;5111437;28;20099;-80
2022/09/12 13:17:28;;;;;;;17.35;9.07;;;;;;;;;;5110819;28;20561;-81
2022/09/12 13:20:03;;;;;;;5.20;2.80;;;;;;;;;;5111007;28;20020;-81
2022/09/12 13:22:38;;;;;;;3.28;1.80;;;;;;;;;;5111276;28;20024;-79
2022/09/12 13:25:17;;;;;;;3.65;1.90;;;;;;;;;;5110422;28;20023;-79
2022/09/12 13:27:55;;;;;;;4.25;1.80;;;;;;;;;;5110736;28;20468;-78
2022/09/12 13:30:22;;;;;;;1.45;1.25;;;;;;;;;;5110706;28;20383;-79
2022/09/12 13:32:48;;;;;;;2.65;1.50;;;;;;;;;;5108471;28;20496;-78
2022/09/12 13:35:37;;;;;;;1.55;1.10;;;;;;;;;;5111102;28;20024;-78
2022/09/12 13:38:03;;;;;;;2.00;1.38;;;;;;;;;;5109054;28;20392;-79
2022/09/12 13:40:41;;;;;;;3.25;1.88;;;;;;;;;;5110822;28;20028;-80
2022/09/12 13:43:15;;;;;;;5.07;2.42;;;;;;;;;;5110996;28;20027;-81
2022/09/12 13:45:43;;;;;;;2.40;1.70;;;;;;;;;;5110222;28;20023;-80
2022/09/12 13:48:29;;;;;;;1.88;1.17;;;;;;;;;;5110816;28;20027;-80
2022/09/12 13:50:58;;;;;;;3.35;1.50;;;;;;;;;;5110694;28;20035;-80
2022/09/12 13:53:27;;;;;;;2.20;1.40;;;;;;;;;;5110013;28;20107;-80
2022/09/12 13:55:55;;;;;;;3.58;1.50;;;;;;;;;;5110833;28;20518;-81
2022/09/12 13:58:26;;;;;;;1.80;1.30;;;;;;;;;;5110297;28;20111;-81
2022/09/12 14:01:12;;;;;;;2.08;1.27;;;;;;;;;;5109636;28;20051;-81
2022/09/12 14:06:26;;;;;;;2.45;0.90;;;;;;;;;;5109320;28;20531;-79
2022/09/12 14:08:55;;;;;;;1.20;0.88;;;;;;;;;;5110050;28;20019;-80
2022/09/12 14:11:26;;;;;;;4.47;0.82;;;;;;;;;;5108630;28;20460;-79
2022/09/12 14:13:54;;;;;;;3.35;0.88;;;;;;;;;;5095871;28;20099;-79
2022/09/12 14:16:22;;;;;;;1.85;0.90;;;;;;;;;;5096403;28;20024;-79
2022/09/12 14:18:48;;;;;;;1.45;0.85;;;;;;;;;;5096745;28;20373;-79
2022/09/12 14:21:24;;;;;;;5.72;0.80;;;;;;;;;;5096020;28;20039;-79
2022/09/12 14:23:51;;;;;;;3.25;1.63;;;;;;;;;;5096309;28;20051;-80
2022/09/12 14:26:17;;;;;;;5.80;1.30;;;;;;;;;;5096251;28;20017;-79
2022/09/12 14:28:47;;;;;;;5.45;1.23;;;;;;;;;;5096001;28;20201;-79
2022/09/12 14:31:17;;;;;;;3.13;1.15;;;;;;;;;;5096181;28;20020;-79
2022/09/12 14:33:47;;;;;;;4.35;1.35;;;;;;;;;;5096036;28;20506;-78
2022/09/12 14:36:24;;;;;;;3.42;1.00;;;;;;;;;;5095575;28;20016;-79
2022/09/12 14:38:53;;;;;;;1.52;0.88;;;;;;;;;;5095992;28;20532;-81
2022/09/12 14:41:23;;;;;;;0.90;0.80;;;;;;;;;;5095469;28;20043;-79
2022/09/12 14:43:52;;;;;;;2.25;1.10;;;;;;;;;;5095893;28;20020;-79
2022/09/12 14:46:19;;;;;;;1.75;1.13;;;;;;;;;;5095790;28;20024;-80
2022/09/12 14:48:50;;;;;;;3.53;1.27;;;;;;;;;;5095357;28;20050;-79
2022/09/12 14:51:21;;;;;;;1.60;1.00;;;;;;;;;;5095695;28;20020;-80
2022/09/12 14:53:48;;;;;;;1.92;0.77;;;;;;;;;;5095728;28;20024;-80
2022/09/12 14:56:15;;;;;;;2.42;1.23;;;;;;;;;;5095130;28;20087;-81
2022/09/12 14:58:41;;;;;;;2.15;1.20;;;;;;;;;;5095720;28;20028;-80
2022/09/12 15:01:08;;;;;;;1.95;1.00;;;;;;;;;;5095189;28;20135;-81
2022/09/12 15:03:35;;;;;;;1.15;0.90;;;;;;;;;;5093337;28;20099;-80
2022/09/12 15:06:03;;;;;;;1.40;1.10;;;;;;;;;;5095569;28;20020;-81
2022/09/12 15:08:29;;;;;;;1.77;1.15;;;;;;;;;;5095286;28;20020;-80
2022/09/12 15:10:56;;;;;;;0.93;0.75;;;;;;;;;;5093573;28;20024;-81
2022/09/12 15:13:24;;;;;;;1.20;0.80;;;;;;;;;;5095281;28;20422;-80
2022/09/12 15:15:53;;;;;;;1.77;0.98;;;;;;;;;;5095302;28;20488;-80
2022/09/12 15:18:20;;;;;;;0.98;0.73;;;;;;;;;;5094883;28;20035;-80
2022/09/12 15:20:48;;;;;;;2.00;1.10;;;;;;;;;;5093776;28;20492;-80
2022/09/12 15:23:18;;;;;;;1.77;0.93;;;;;;;;;;5094480;28;20488;-80
2022/09/12 15:25:45;;;;;;;1.30;0.95;;;;;;;;;;5095185;28;20035;-80
2022/09/12 15:28:18;;;;;;;2.33;1.15;;;;;;;;;;5094983;28;20028;-80
2022/09/12 15:30:46;;;;;;;3.72;1.00;;;;;;;;;;5094520;28;20031;-80
2022/09/12 15:33:12;;;;;;;2.03;1.08;;;;;;;;;;5096808;28;20034;-79
2022/09/12 15:35:38;;;;;;;1.48;1.10;;;;;;;;;;5097158;28;20024;-79
2022/09/12 15:38:04;;;;;;;1.77;1.10;;;;;;;;;;5096510;28;20016;-80
2022/09/12 15:40:30;;;;;;;2.13;0.80;;;;;;;;;;5095210;28;20062;-79
2022/09/12 15:42:56;;;;;;;4.05;1.65;;;;;;;;;;5094630;28;20490;-80
2022/09/12 15:45:26;;;;;;;2.50;1.35;;;;;;;;;;5094430;28;20480;-80
2022/09/12 15:47:52;;;;;;;2.08;1.45;;;;;;;;;;5094712;28;20035;-80
2022/09/12 15:50:18;;;;;;;1.55;1.15;;;;;;;;;;5095057;28;20456;-80
2022/09/12 15:52:44;;;;;;;1.67;0.93;;;;;;;;;;5092874;28;20115;-80
2022/09/12 15:55:18;;;;;;;2.63;1.30;;;;;;;;;;5094558;28;20073;-80
2022/09/12 15:57:44;;;;;;;3.13;1.30;;;;;;;;;;5094722;28;20043;-80
2022/09/12 16:00:11;;;;;;;1.55;1.00;;;;;;;;;;5093643;28;20044;-80
2022/09/12 16:02:37;;;;;;;1.58;1.35;;;;;;;;;;5094427;28;20020;-80
2022/09/12 16:05:04;;;;;;;1.30;1.10;;;;;;;;;;5092951;28;20049;-80
2022/09/12 16:09:10;;;;;;;1.38;1.13;;;;;;;;;;5111784;27;20409;-79
2022/09/12 16:11:37;;;;;;;2.85;1.52;;;;;;;;;;5111724;28;20036;-79
2022/09/12 16:14:04;;;;;;;665.75;505.10;;;;;;;;;;5110819;28;20120;-79
2022/09/12 16:16:31;;;;;;;649.58;426.92;;;;;;;;;;5111169;28;20031;-79
2022/09/12 16:18:57;;;;;;;660.13;422.60;;;;;;;;;;5111116;28;20024;-78
2022/09/12 16:21:39;;;;;;;674.47;381.85;;;;;;;;;;5111024;27;20392;-78
2022/09/12 16:24:05;;;;;;;669.55;373.17;;;;;;;;;;5111252;28;20028;-78
2022/09/12 16:26:31;;;;;;;711.45;379.25;;;;;;;;;;5110901;28;20035;-78
2022/09/12 16:28:58;;;;;;;702.75;406.77;;;;;;;;;;5110822;28;20024;-79
2022/09/12 16:31:24;;;;;;;723.80;438.52;;;;;;;;;;5110918;28;20043;-78
2022/09/12 16:36:04;;;;;;;700.45;417.65;;;;;;;;;;5110743;27;20397;-79
2022/09/12 16:39:35;;;;;;;672.90;399.40;;;;;;;;;;5111457;27;20397;-80
2022/09/12 16:42:01;;;;;;;697.78;362.63;;;;;;;;;;5110992;28;20047;-80
2022/09/12 16:48:00;;;;;;;704.05;381.90;;;;;;;;;;5111001;27;20573;-82
2022/09/12 16:50:28;;;;;;;731.53;375.90;;;;;;;;;;5109864;28;20125;-81
2022/09/12 16:52:54;;;;;;;704.55;355.90;;;;;;;;;;5111360;28;20487;-81
2022/09/12 16:55:21;;;;;;;720.92;391.55;;;;;;;;;;5110755;28;20459;-80
2022/09/12 17:02:02;;;;;;;710.05;342.83;;;;;;;;;;5110983;27;20117;-82
2022/09/12 17:04:28;;;;;;;712.33;363.40;;;;;;;;;;5089299;28;20031;-81
2022/09/12 17:07:48;;;;;;;693.58;346.58;;;;;;;;;;5110890;27;20780;-80
2022/09/12 17:10:14;;;;;;;713.85;357.05;;;;;;;;;;5109736;28;20032;-79
2022/09/12 17:13:02;;;;;;;687.58;350.30;;;;;;;;;;5111392;27;20872;-81
2022/09/12 17:17:15;;;;;;;713.03;354.23;;;;;;;;;;5111147;27;20772;-80
2022/09/12 17:19:42;;;;;;;721.70;360.20;;;;;;;;;;5111283;28;20350;-80
2022/09/12 17:23:34;;;;;;;758.28;348.00;;;;;;;;;;5111261;27;21044;-79
2022/09/12 17:26:01;;;;;;;852.60;340.13;;;;;;;;;;5110568;28;20102;-79
2022/09/12 17:28:27;;;;;;;842.95;354.88;;;;;;;;;;5109748;28;20047;-79
2022/09/12 17:32:23;;;;;;;837.70;359.80;;;;;;;;;;5110733;27;20392;-80
2022/09/12 17:37:54;;;;;;;842.85;342.73;;;;;;;;;;5111477;27;20541;-83
2022/09/12 17:40:21;;;;;;;828.33;354.65;;;;;;;;;;5111283;28;20395;-80
2022/09/12 17:42:47;;;;;;;832.75;360.02;;;;;;;;;;5111248;28;20111;-80
2022/09/12 17:45:13;;;;;;;829.97;356.48;;;;;;;;;;5110905;28;20027;-80
2022/09/12 17:47:39;;;;;;;822.38;355.17;;;;;;;;;;5111168;28;20430;-80
2022/09/12 17:50:06;;;;;;;823.65;355.27;;;;;;;;;;5111489;28;20020;-83